sensor_id;sensor_type;location;lat;lon;timestamp;temperature;humidity
19039;DHT22;9652;49.014;12.052;2022-10-16T00:01:17;18.40;81.60
19039;DHT22;9652;49.014;12.052;2022-10-16T00:03:46;18.40;81.80
19039;DHT22;9652;49.014;12.052;2022-10-16T00:06:16;18.40;82.00
19039;DHT22;9652;49.014;12.052;2022-10-16T00:08:44;18.30;82.10
19039;DHT22;9652;49.014;12.052;2022-10-16T00:11:17;18.40;82.10
19039;DHT22;9652;49.014;12.052;2022-10-16T00:13:49;18.40;82.10
19039;DHT22;9652;49.014;12.052;2022-10-16T00:16:17;18.40;82.00
19039;DHT22;9652;49.014;12.052;2022-10-16T00:18:45;18.40;82.00
19039;DHT22;9652;49.014;12.052;2022-10-16T00:21:15;18.40;82.00
19039;DHT22;9652;49.014;12.052;2022-10-16T00:23:44;18.40;82.00
19039;DHT22;9652;49.014;12.052;2022-10-16T00:26:13;18.40;81.90
19039;DHT22;9652;49.014;12.052;2022-10-16T00:28:45;18.40;82.00
19039;DHT22;9652;49.014;12.052;2022-10-16T00:31:13;18.40;82.00
19039;DHT22;9652;49.014;12.052;2022-10-16T00:33:41;18.40;82.00
19039;DHT22;9652;49.014;12.052;2022-10-16T00:36:11;18.40;82.10
19039;DHT22;9652;49.014;12.052;2022-10-16T00:38:39;18.40;82.20
19039;DHT22;9652;49.014;12.052;2022-10-16T00:41:09;18.40;82.10
19039;DHT22;9652;49.014;12.052;2022-10-16T00:43:40;18.40;82.10
19039;DHT22;9652;49.014;12.052;2022-10-16T00:46:19;18.50;82.20
19039;DHT22;9652;49.014;12.052;2022-10-16T00:48:51;18.40;82.10
19039;DHT22;9652;49.014;12.052;2022-10-16T00:51:30;18.40;82.00
19039;DHT22;9652;49.014;12.052;2022-10-16T00:54:00;18.40;81.90
19039;DHT22;9652;49.014;12.052;2022-10-16T00:56:29;18.50;82.80
19039;DHT22;9652;49.014;12.052;2022-10-16T00:58:58;18.40;81.80
19039;DHT22;9652;49.014;12.052;2022-10-16T01:01:29;18.40;82.70
19039;DHT22;9652;49.014;12.052;2022-10-16T01:03:56;18.40;81.90
19039;DHT22;9652;49.014;12.052;2022-10-16T01:06:25;18.40;81.90
19039;DHT22;9652;49.014;12.052;2022-10-16T01:09:13;18.40;81.90
19039;DHT22;9652;49.014;12.052;2022-10-16T01:11:53;18.40;82.00
19039;DHT22;9652;49.014;12.052;2022-10-16T01:14:34;18.40;81.80
19039;DHT22;9652;49.014;12.052;2022-10-16T01:17:11;18.40;82.00
19039;DHT22;9652;49.014;12.052;2022-10-16T01:19:58;18.30;81.90
19039;DHT22;9652;49.014;12.052;2022-10-16T01:22:37;18.40;82.20
19039;DHT22;9652;49.014;12.052;2022-10-16T01:25:18;18.40;82.00
19039;DHT22;9652;49.014;12.052;2022-10-16T01:27:53;18.40;82.10
19039;DHT22;9652;49.014;12.052;2022-10-16T01:30:24;18.40;82.00
19039;DHT22;9652;49.014;12.052;2022-10-16T01:32:57;18.40;82.10
19039;DHT22;9652;49.014;12.052;2022-10-16T01:35:32;18.40;82.20
19039;DHT22;9652;49.014;12.052;2022-10-16T01:38:04;18.40;82.20
19039;DHT22;9652;49.014;12.052;2022-10-16T01:40:39;18.40;82.20
19039;DHT22;9652;49.014;12.052;2022-10-16T01:43:15;18.40;82.00
19039;DHT22;9652;49.014;12.052;2022-10-16T01:45:46;18.40;82.00
19039;DHT22;9652;49.014;12.052;2022-10-16T01:48:16;18.40;82.00
19039;DHT22;9652;49.014;12.052;2022-10-16T01:50:52;18.40;82.10
19039;DHT22;9652;49.014;12.052;2022-10-16T01:53:23;18.30;82.10
19039;DHT22;9652;49.014;12.052;2022-10-16T01:55:54;18.40;82.20
19039;DHT22;9652;49.014;12.052;2022-10-16T01:58:25;18.40;82.20
19039;DHT22;9652;49.014;12.052;2022-10-16T02:00:56;18.40;82.20
19039;DHT22;9652;49.014;12.052;2022-10-16T02:03:24;18.40;82.20
19039;DHT22;9652;49.014;12.052;2022-10-16T02:05:53;18.30;82.00
19039;DHT22;9652;49.014;12.052;2022-10-16T02:08:24;18.40;82.00
19039;DHT22;9652;49.014;12.052;2022-10-16T02:10:55;18.30;81.90
19039;DHT22;9652;49.014;12.052;2022-10-16T02:13:28;18.30;81.90
19039;DHT22;9652;49.014;12.052;2022-10-16T02:15:58;18.30;82.00
19039;DHT22;9652;49.014;12.052;2022-10-16T02:18:26;18.40;82.10
19039;DHT22;9652;49.014;12.052;2022-10-16T02:20:58;18.30;82.10
19039;DHT22;9652;49.014;12.052;2022-10-16T02:23:35;18.30;82.00
19039;DHT22;9652;49.014;12.052;2022-10-16T02:26:13;18.40;82.00
19039;DHT22;9652;49.014;12.052;2022-10-16T02:28:50;18.30;81.80
19039;DHT22;9652;49.014;12.052;2022-10-16T02:31:25;18.30;81.80
19039;DHT22;9652;49.014;12.052;2022-10-16T02:33:56;18.30;81.80
19039;DHT22;9652;49.014;12.052;2022-10-16T02:36:26;18.30;81.80
19039;DHT22;9652;49.014;12.052;2022-10-16T02:38:54;18.30;81.80
19039;DHT22;9652;49.014;12.052;2022-10-16T02:41:23;18.30;81.80
19039;DHT22;9652;49.014;12.052;2022-10-16T02:43:52;18.30;81.70
19039;DHT22;9652;49.014;12.052;2022-10-16T02:46:21;18.30;81.70
19039;DHT22;9652;49.014;12.052;2022-10-16T02:48:48;18.20;81.60
19039;DHT22;9652;49.014;12.052;2022-10-16T02:51:15;18.30;81.50
19039;DHT22;9652;49.014;12.052;2022-10-16T02:53:42;18.20;81.40
19039;DHT22;9652;49.014;12.052;2022-10-16T02:56:09;18.20;81.50
19039;DHT22;9652;49.014;12.052;2022-10-16T02:58:36;18.20;81.60
19039;DHT22;9652;49.014;12.052;2022-10-16T03:01:05;18.20;81.90
19039;DHT22;9652;49.014;12.052;2022-10-16T03:03:32;18.20;82.10
19039;DHT22;9652;49.014;12.052;2022-10-16T03:05:59;18.20;82.20
19039;DHT22;9652;49.014;12.052;2022-10-16T03:08:26;18.20;82.10
19039;DHT22;9652;49.014;12.052;2022-10-16T03:10:53;18.20;82.10
19039;DHT22;9652;49.014;12.052;2022-10-16T03:13:20;18.20;82.00
19039;DHT22;9652;49.014;12.052;2022-10-16T03:15:48;18.20;82.00
19039;DHT22;9652;49.014;12.052;2022-10-16T03:18:16;18.20;82.10
19039;DHT22;9652;49.014;12.052;2022-10-16T03:20:44;18.20;82.10
19039;DHT22;9652;49.014;12.052;2022-10-16T03:23:11;18.20;82.10
19039;DHT22;9652;49.014;12.052;2022-10-16T03:25:39;18.20;82.10
19039;DHT22;9652;49.014;12.052;2022-10-16T03:28:06;18.30;82.20
19039;DHT22;9652;49.014;12.052;2022-10-16T03:30:33;18.20;82.20
19039;DHT22;9652;49.014;12.052;2022-10-16T03:33:01;18.20;82.20
19039;DHT22;9652;49.014;12.052;2022-10-16T03:35:29;18.30;82.40
19039;DHT22;9652;49.014;12.052;2022-10-16T03:37:56;18.30;82.50
19039;DHT22;9652;49.014;12.052;2022-10-16T03:40:24;18.30;82.50
19039;DHT22;9652;49.014;12.052;2022-10-16T03:42:51;18.30;82.50
19039;DHT22;9652;49.014;12.052;2022-10-16T03:45:21;18.30;82.50
19039;DHT22;9652;49.014;12.052;2022-10-16T03:47:48;18.30;83.30
19039;DHT22;9652;49.014;12.052;2022-10-16T03:50:15;18.30;82.40
19039;DHT22;9652;49.014;12.052;2022-10-16T03:52:44;18.30;82.30
19039;DHT22;9652;49.014;12.052;2022-10-16T03:55:11;18.40;82.30
19039;DHT22;9652;49.014;12.052;2022-10-16T03:57:38;18.40;82.20
19039;DHT22;9652;49.014;12.052;2022-10-16T04:00:06;18.40;81.90
19039;DHT22;9652;49.014;12.052;2022-10-16T04:02:38;18.30;81.40
19039;DHT22;9652;49.014;12.052;2022-10-16T04:05:05;18.30;80.90
19039;DHT22;9652;49.014;12.052;2022-10-16T04:07:33;18.30;80.50
19039;DHT22;9652;49.014;12.052;2022-10-16T04:10:01;18.20;80.10
19039;DHT22;9652;49.014;12.052;2022-10-16T04:12:29;18.10;80.80
19039;DHT22;9652;49.014;12.052;2022-10-16T04:14:56;18.10;80.10
19039;DHT22;9652;49.014;12.052;2022-10-16T04:17:23;18.00;80.30
19039;DHT22;9652;49.014;12.052;2022-10-16T04:19:51;17.90;80.50
19039;DHT22;9652;49.014;12.052;2022-10-16T04:22:18;18.00;80.90
19039;DHT22;9652;49.014;12.052;2022-10-16T04:24:45;17.90;81.20
19039;DHT22;9652;49.014;12.052;2022-10-16T04:27:13;17.90;81.50
19039;DHT22;9652;49.014;12.052;2022-10-16T04:29:40;17.90;81.90
19039;DHT22;9652;49.014;12.052;2022-10-16T04:32:08;17.90;82.20
19039;DHT22;9652;49.014;12.052;2022-10-16T04:34:36;17.90;83.20
19039;DHT22;9652;49.014;12.052;2022-10-16T04:37:03;18.00;82.50
19039;DHT22;9652;49.014;12.052;2022-10-16T04:39:30;18.00;82.60
19039;DHT22;9652;49.014;12.052;2022-10-16T04:41:58;18.00;82.70
19039;DHT22;9652;49.014;12.052;2022-10-16T04:44:26;18.00;82.60
19039;DHT22;9652;49.014;12.052;2022-10-16T04:46:53;18.00;82.60
19039;DHT22;9652;49.014;12.052;2022-10-16T04:49:20;18.10;82.50
19039;DHT22;9652;49.014;12.052;2022-10-16T04:51:47;18.10;82.50
19039;DHT22;9652;49.014;12.052;2022-10-16T04:54:14;18.10;82.50
19039;DHT22;9652;49.014;12.052;2022-10-16T04:56:41;18.10;82.30
19039;DHT22;9652;49.014;12.052;2022-10-16T04:59:13;18.10;82.20
19039;DHT22;9652;49.014;12.052;2022-10-16T05:01:42;18.10;82.00
19039;DHT22;9652;49.014;12.052;2022-10-16T05:04:09;18.10;81.90
19039;DHT22;9652;49.014;12.052;2022-10-16T05:06:37;18.20;82.00
19039;DHT22;9652;49.014;12.052;2022-10-16T05:09:05;18.10;82.00
19039;DHT22;9652;49.014;12.052;2022-10-16T05:11:32;18.10;82.00
19039;DHT22;9652;49.014;12.052;2022-10-16T05:13:59;18.10;82.10
19039;DHT22;9652;49.014;12.052;2022-10-16T05:16:27;18.10;82.20
19039;DHT22;9652;49.014;12.052;2022-10-16T05:18:55;18.10;82.20
19039;DHT22;9652;49.014;12.052;2022-10-16T05:21:23;18.10;82.30
19039;DHT22;9652;49.014;12.052;2022-10-16T05:23:50;18.10;82.20
19039;DHT22;9652;49.014;12.052;2022-10-16T05:26:17;18.10;82.20
19039;DHT22;9652;49.014;12.052;2022-10-16T05:28:44;18.10;82.10
19039;DHT22;9652;49.014;12.052;2022-10-16T05:31:11;18.10;82.00
19039;DHT22;9652;49.014;12.052;2022-10-16T05:33:38;18.10;82.10
19039;DHT22;9652;49.014;12.052;2022-10-16T05:36:09;18.10;82.10
19039;DHT22;9652;49.014;12.052;2022-10-16T05:38:37;18.10;82.00
19039;DHT22;9652;49.014;12.052;2022-10-16T05:41:05;18.10;81.80
19039;DHT22;9652;49.014;12.052;2022-10-16T05:43:32;18.10;81.80
19039;DHT22;9652;49.014;12.052;2022-10-16T05:46:01;18.10;81.80
19039;DHT22;9652;49.014;12.052;2022-10-16T05:48:30;18.00;81.90
19039;DHT22;9652;49.014;12.052;2022-10-16T05:50:59;18.00;82.00
19039;DHT22;9652;49.014;12.052;2022-10-16T05:53:29;18.00;82.00
19039;DHT22;9652;49.014;12.052;2022-10-16T05:55:58;18.00;82.00
19039;DHT22;9652;49.014;12.052;2022-10-16T05:58:29;18.00;82.00
19039;DHT22;9652;49.014;12.052;2022-10-16T06:01:00;18.00;82.00
19039;DHT22;9652;49.014;12.052;2022-10-16T06:03:29;18.00;81.90
19039;DHT22;9652;49.014;12.052;2022-10-16T06:05:56;18.00;81.70
19039;DHT22;9652;49.014;12.052;2022-10-16T06:08:23;18.00;81.40
19039;DHT22;9652;49.014;12.052;2022-10-16T06:11:01;18.00;81.20
19039;DHT22;9652;49.014;12.052;2022-10-16T06:13:29;18.00;81.30
19039;DHT22;9652;49.014;12.052;2022-10-16T06:15:57;17.90;81.30
19039;DHT22;9652;49.014;12.052;2022-10-16T06:18:26;17.90;81.60
19039;DHT22;9652;49.014;12.052;2022-10-16T06:20:54;17.90;81.90
19039;DHT22;9652;49.014;12.052;2022-10-16T06:23:22;18.00;82.30
19039;DHT22;9652;49.014;12.052;2022-10-16T06:25:49;17.90;82.30
19039;DHT22;9652;49.014;12.052;2022-10-16T06:28:18;18.00;82.20
19039;DHT22;9652;49.014;12.052;2022-10-16T06:30:45;18.00;81.90
19039;DHT22;9652;49.014;12.052;2022-10-16T06:33:12;18.00;81.60
19039;DHT22;9652;49.014;12.052;2022-10-16T06:35:40;18.00;81.50
19039;DHT22;9652;49.014;12.052;2022-10-16T06:38:07;18.00;81.50
19039;DHT22;9652;49.014;12.052;2022-10-16T06:40:34;18.00;81.60
19039;DHT22;9652;49.014;12.052;2022-10-16T06:43:01;18.00;82.00
19039;DHT22;9652;49.014;12.052;2022-10-16T06:45:29;18.00;82.00
19039;DHT22;9652;49.014;12.052;2022-10-16T06:47:57;18.00;82.30
19039;DHT22;9652;49.014;12.052;2022-10-16T06:50:25;18.00;82.30
19039;DHT22;9652;49.014;12.052;2022-10-16T06:52:52;18.00;82.40
19039;DHT22;9652;49.014;12.052;2022-10-16T06:55:19;18.00;82.30
19039;DHT22;9652;49.014;12.052;2022-10-16T06:57:47;18.00;82.20
19039;DHT22;9652;49.014;12.052;2022-10-16T07:00:15;18.10;82.30
19039;DHT22;9652;49.014;12.052;2022-10-16T07:02:44;18.10;82.50
19039;DHT22;9652;49.014;12.052;2022-10-16T07:05:11;18.10;82.80
19039;DHT22;9652;49.014;12.052;2022-10-16T07:07:38;18.10;82.80
19039;DHT22;9652;49.014;12.052;2022-10-16T07:10:06;18.20;82.80
19039;DHT22;9652;49.014;12.052;2022-10-16T07:12:34;18.20;83.10
19039;DHT22;9652;49.014;12.052;2022-10-16T07:15:02;18.30;83.50
19039;DHT22;9652;49.014;12.052;2022-10-16T07:17:30;18.40;83.70
19039;DHT22;9652;49.014;12.052;2022-10-16T07:19:58;18.40;83.70
19039;DHT22;9652;49.014;12.052;2022-10-16T07:22:28;18.60;83.70
19039;DHT22;9652;49.014;12.052;2022-10-16T07:24:55;18.60;83.50
19039;DHT22;9652;49.014;12.052;2022-10-16T07:27:23;18.70;83.40
19039;DHT22;9652;49.014;12.052;2022-10-16T07:29:51;18.80;82.90
19039;DHT22;9652;49.014;12.052;2022-10-16T07:32:19;18.80;82.60
19039;DHT22;9652;49.014;12.052;2022-10-16T07:34:47;18.90;82.40
19039;DHT22;9652;49.014;12.052;2022-10-16T07:37:16;19.00;82.20
19039;DHT22;9652;49.014;12.052;2022-10-16T07:39:44;19.00;82.00
19039;DHT22;9652;49.014;12.052;2022-10-16T07:42:11;19.00;81.90
19039;DHT22;9652;49.014;12.052;2022-10-16T07:44:39;19.00;82.00
19039;DHT22;9652;49.014;12.052;2022-10-16T07:47:06;19.20;82.40
19039;DHT22;9652;49.014;12.052;2022-10-16T07:49:33;19.20;82.70
19039;DHT22;9652;49.014;12.052;2022-10-16T07:52:01;19.20;82.60
19039;DHT22;9652;49.014;12.052;2022-10-16T07:54:30;19.30;82.60
19039;DHT22;9652;49.014;12.052;2022-10-16T07:56:57;19.40;82.50
19039;DHT22;9652;49.014;12.052;2022-10-16T07:59:25;19.50;82.50
19039;DHT22;9652;49.014;12.052;2022-10-16T08:01:52;19.60;82.20
19039;DHT22;9652;49.014;12.052;2022-10-16T08:04:19;19.60;81.80
19039;DHT22;9652;49.014;12.052;2022-10-16T08:06:46;19.70;81.50
19039;DHT22;9652;49.014;12.052;2022-10-16T08:09:15;19.70;81.30
19039;DHT22;9652;49.014;12.052;2022-10-16T08:11:43;19.80;81.10
19039;DHT22;9652;49.014;12.052;2022-10-16T08:14:10;19.80;80.90
19039;DHT22;9652;49.014;12.052;2022-10-16T08:16:38;19.90;81.00
19039;DHT22;9652;49.014;12.052;2022-10-16T08:19:05;19.90;81.30
19039;DHT22;9652;49.014;12.052;2022-10-16T08:21:32;20.00;81.80
19039;DHT22;9652;49.014;12.052;2022-10-16T08:23:59;20.10;82.20
19039;DHT22;9652;49.014;12.052;2022-10-16T08:26:26;20.20;82.30
19039;DHT22;9652;49.014;12.052;2022-10-16T08:28:55;20.30;82.20
19039;DHT22;9652;49.014;12.052;2022-10-16T08:31:23;20.40;81.70
19039;DHT22;9652;49.014;12.052;2022-10-16T08:33:51;20.50;81.40
19039;DHT22;9652;49.014;12.052;2022-10-16T08:36:19;20.60;81.10
19039;DHT22;9652;49.014;12.052;2022-10-16T08:38:48;20.70;80.50
19039;DHT22;9652;49.014;12.052;2022-10-16T08:44:54;20.80;78.30
19039;DHT22;9652;49.014;12.052;2022-10-16T08:47:50;20.80;78.20
19039;DHT22;9652;49.014;12.052;2022-10-16T08:50:28;20.80;78.20
19039;DHT22;9652;49.014;12.052;2022-10-16T08:52:58;20.80;78.20
19039;DHT22;9652;49.014;12.052;2022-10-16T08:55:33;20.80;78.30
19039;DHT22;9652;49.014;12.052;2022-10-16T08:58:12;20.80;78.10
19039;DHT22;9652;49.014;12.052;2022-10-16T09:00:43;20.70;77.90
19039;DHT22;9652;49.014;12.052;2022-10-16T09:03:18;20.70;78.20
19039;DHT22;9652;49.014;12.052;2022-10-16T09:06:01;20.70;78.10
19039;DHT22;9652;49.014;12.052;2022-10-16T09:08:43;20.70;77.90
19039;DHT22;9652;49.014;12.052;2022-10-16T09:11:25;20.70;78.20
19039;DHT22;9652;49.014;12.052;2022-10-16T09:14:18;20.70;78.20
19039;DHT22;9652;49.014;12.052;2022-10-16T09:17:16;20.70;78.20
19039;DHT22;9652;49.014;12.052;2022-10-16T09:19:56;20.80;78.20
19039;DHT22;9652;49.014;12.052;2022-10-16T09:22:35;20.80;78.70
19039;DHT22;9652;49.014;12.052;2022-10-16T09:25:11;20.90;78.90
19039;DHT22;9652;49.014;12.052;2022-10-16T09:27:41;21.00;78.70
19039;DHT22;9652;49.014;12.052;2022-10-16T09:30:13;21.10;79.30
19039;DHT22;9652;49.014;12.052;2022-10-16T09:32:45;21.20;79.10
19039;DHT22;9652;49.014;12.052;2022-10-16T09:35:17;21.20;78.80
19039;DHT22;9652;49.014;12.052;2022-10-16T09:37:48;21.30;78.80
19039;DHT22;9652;49.014;12.052;2022-10-16T09:40:25;21.40;78.60
19039;DHT22;9652;49.014;12.052;2022-10-16T09:43:01;21.50;77.90
19039;DHT22;9652;49.014;12.052;2022-10-16T09:45:32;21.60;78.10
19039;DHT22;9652;49.014;12.052;2022-10-16T09:48:10;21.70;78.10
19039;DHT22;9652;49.014;12.052;2022-10-16T09:50:39;21.80;78.00
19039;DHT22;9652;49.014;12.052;2022-10-16T09:53:12;21.80;77.60
19039;DHT22;9652;49.014;12.052;2022-10-16T09:55:50;21.90;77.10
19039;DHT22;9652;49.014;12.052;2022-10-16T09:58:22;22.00;76.90
19039;DHT22;9652;49.014;12.052;2022-10-16T10:00:52;22.00;77.20
19039;DHT22;9652;49.014;12.052;2022-10-16T10:03:35;22.00;77.10
19039;DHT22;9652;49.014;12.052;2022-10-16T10:06:16;22.10;76.60
19039;DHT22;9652;49.014;12.052;2022-10-16T10:09:03;22.20;76.50
19039;DHT22;9652;49.014;12.052;2022-10-16T10:11:40;22.20;76.00
19039;DHT22;9652;49.014;12.052;2022-10-16T10:14:28;22.20;76.10
19039;DHT22;9652;49.014;12.052;2022-10-16T10:17:19;22.30;75.80
19039;DHT22;9652;49.014;12.052;2022-10-16T10:19:51;22.30;75.50
19039;DHT22;9652;49.014;12.052;2022-10-16T10:22:24;22.40;76.10
19039;DHT22;9652;49.014;12.052;2022-10-16T10:25:26;22.40;76.00
19039;DHT22;9652;49.014;12.052;2022-10-16T10:28:18;22.50;75.20
19039;DHT22;9652;49.014;12.052;2022-10-16T10:30:59;22.60;75.50
19039;DHT22;9652;49.014;12.052;2022-10-16T10:33:37;22.60;75.70
19039;DHT22;9652;49.014;12.052;2022-10-16T10:36:20;22.60;75.70
19039;DHT22;9652;49.014;12.052;2022-10-16T10:38:58;22.70;75.30
19039;DHT22;9652;49.014;12.052;2022-10-16T10:44:57;22.80;74.80
19039;DHT22;9652;49.014;12.052;2022-10-16T10:47:59;22.80;74.80
19039;DHT22;9652;49.014;12.052;2022-10-16T10:50:42;22.90;75.20
19039;DHT22;9652;49.014;12.052;2022-10-16T10:53:25;23.00;75.60
19039;DHT22;9652;49.014;12.052;2022-10-16T10:56:14;23.00;75.10
19039;DHT22;9652;49.014;12.052;2022-10-16T10:59:08;23.10;75.40
19039;DHT22;9652;49.014;12.052;2022-10-16T11:01:56;23.20;75.30
19039;DHT22;9652;49.014;12.052;2022-10-16T11:04:38;23.30;76.10
19039;DHT22;9652;49.014;12.052;2022-10-16T11:07:32;23.40;75.30
19039;DHT22;9652;49.014;12.052;2022-10-16T11:10:13;23.50;75.70
19039;DHT22;9652;49.014;12.052;2022-10-16T11:12:45;23.60;74.80
19039;DHT22;9652;49.014;12.052;2022-10-16T11:15:19;23.70;75.30
19039;DHT22;9652;49.014;12.052;2022-10-16T11:17:52;23.90;74.90
19039;DHT22;9652;49.014;12.052;2022-10-16T11:20:26;23.90;74.90
19039;DHT22;9652;49.014;12.052;2022-10-16T11:22:59;24.00;74.50
19039;DHT22;9652;49.014;12.052;2022-10-16T11:25:35;24.10;74.40
19039;DHT22;9652;49.014;12.052;2022-10-16T11:28:07;24.20;74.20
19039;DHT22;9652;49.014;12.052;2022-10-16T11:30:46;24.30;73.80
19039;DHT22;9652;49.014;12.052;2022-10-16T11:33:25;24.40;73.20
19039;DHT22;9652;49.014;12.052;2022-10-16T11:36:02;24.50;73.00
19039;DHT22;9652;49.014;12.052;2022-10-16T11:38:38;24.70;73.20
19039;DHT22;9652;49.014;12.052;2022-10-16T11:41:18;24.80;73.20
19039;DHT22;9652;49.014;12.052;2022-10-16T11:44:01;24.90;72.70
19039;DHT22;9652;49.014;12.052;2022-10-16T11:46:46;24.70;69.80
19039;DHT22;9652;49.014;12.052;2022-10-16T11:49:21;25.00;71.10
19039;DHT22;9652;49.014;12.052;2022-10-16T11:51:58;25.10;70.70
19039;DHT22;9652;49.014;12.052;2022-10-16T11:54:38;25.20;69.50
19039;DHT22;9652;49.014;12.052;2022-10-16T11:57:17;25.30;69.20
19039;DHT22;9652;49.014;12.052;2022-10-16T11:59:52;25.20;68.80
19039;DHT22;9652;49.014;12.052;2022-10-16T12:02:34;25.20;68.70
19039;DHT22;9652;49.014;12.052;2022-10-16T12:05:20;25.10;68.30
19039;DHT22;9652;49.014;12.052;2022-10-16T12:08:03;25.30;68.60
19039;DHT22;9652;49.014;12.052;2022-10-16T12:10:37;25.00;68.80
19039;DHT22;9652;49.014;12.052;2022-10-16T12:13:34;25.00;69.30
19039;DHT22;9652;49.014;12.052;2022-10-16T12:16:07;25.00;68.20
19039;DHT22;9652;49.014;12.052;2022-10-16T12:18:48;24.90;69.10
19039;DHT22;9652;49.014;12.052;2022-10-16T12:21:17;24.90;69.70
19039;DHT22;9652;49.014;12.052;2022-10-16T12:23:50;24.90;69.50
19039;DHT22;9652;49.014;12.052;2022-10-16T12:26:26;24.90;68.90
19039;DHT22;9652;49.014;12.052;2022-10-16T12:29:12;24.90;68.60
19039;DHT22;9652;49.014;12.052;2022-10-16T12:31:46;24.80;68.20
19039;DHT22;9652;49.014;12.052;2022-10-16T12:34:21;24.80;69.10
19039;DHT22;9652;49.014;12.052;2022-10-16T12:36:54;24.70;68.50
19039;DHT22;9652;49.014;12.052;2022-10-16T12:39:24;24.70;69.00
19039;DHT22;9652;49.014;12.052;2022-10-16T12:42:02;24.70;69.10
19039;DHT22;9652;49.014;12.052;2022-10-16T12:44:36;24.70;68.40
19039;DHT22;9652;49.014;12.052;2022-10-16T12:47:03;24.70;68.60
19039;DHT22;9652;49.014;12.052;2022-10-16T12:49:36;24.60;68.80
19039;DHT22;9652;49.014;12.052;2022-10-16T12:52:24;24.60;68.90
19039;DHT22;9652;49.014;12.052;2022-10-16T12:54:56;24.60;67.90
19039;DHT22;9652;49.014;12.052;2022-10-16T12:57:40;24.60;69.20
19039;DHT22;9652;49.014;12.052;2022-10-16T13:00:26;24.60;68.30
19039;DHT22;9652;49.014;12.052;2022-10-16T13:03:37;24.60;68.70
19039;DHT22;9652;49.014;12.052;2022-10-16T13:06:22;24.70;67.80
19039;DHT22;9652;49.014;12.052;2022-10-16T13:09:12;24.70;68.00
19039;DHT22;9652;49.014;12.052;2022-10-16T13:12:07;24.70;67.70
19039;DHT22;9652;49.014;12.052;2022-10-16T13:18:13;24.70;66.90
19039;DHT22;9652;49.014;12.052;2022-10-16T13:20:57;24.70;67.00
19039;DHT22;9652;49.014;12.052;2022-10-16T13:23:35;24.60;65.70
19039;DHT22;9652;49.014;12.052;2022-10-16T13:26:17;24.60;66.90
19039;DHT22;9652;49.014;12.052;2022-10-16T13:28:51;24.50;66.60
19039;DHT22;9652;49.014;12.052;2022-10-16T13:31:21;24.60;67.20
19039;DHT22;9652;49.014;12.052;2022-10-16T13:33:52;24.50;66.70
19039;DHT22;9652;49.014;12.052;2022-10-16T13:36:24;24.50;66.90
19039;DHT22;9652;49.014;12.052;2022-10-16T13:39:10;24.40;66.30
19039;DHT22;9652;49.014;12.052;2022-10-16T13:41:39;24.40;64.50
19039;DHT22;9652;49.014;12.052;2022-10-16T13:44:12;24.40;66.00
19039;DHT22;9652;49.014;12.052;2022-10-16T13:46:43;24.40;65.70
19039;DHT22;9652;49.014;12.052;2022-10-16T13:49:15;24.40;65.80
19039;DHT22;9652;49.014;12.052;2022-10-16T13:51:54;24.40;65.00
19039;DHT22;9652;49.014;12.052;2022-10-16T13:54:23;24.40;64.60
19039;DHT22;9652;49.014;12.052;2022-10-16T13:56:51;24.40;65.40
19039;DHT22;9652;49.014;12.052;2022-10-16T13:59:26;24.40;65.40
19039;DHT22;9652;49.014;12.052;2022-10-16T14:02:08;24.40;64.90
19039;DHT22;9652;49.014;12.052;2022-10-16T14:04:43;24.40;64.80
19039;DHT22;9652;49.014;12.052;2022-10-16T14:07:13;24.40;65.40
19039;DHT22;9652;49.014;12.052;2022-10-16T14:09:48;24.30;64.90
19039;DHT22;9652;49.014;12.052;2022-10-16T14:12:17;24.40;65.10
19039;DHT22;9652;49.014;12.052;2022-10-16T14:14:46;24.30;65.40
19039;DHT22;9652;49.014;12.052;2022-10-16T14:17:20;24.40;65.40
19039;DHT22;9652;49.014;12.052;2022-10-16T14:19:50;24.40;64.80
19039;DHT22;9652;49.014;12.052;2022-10-16T14:22:28;24.40;65.10
19039;DHT22;9652;49.014;12.052;2022-10-16T14:24:57;24.30;64.70
19039;DHT22;9652;49.014;12.052;2022-10-16T14:27:29;24.40;65.10
19039;DHT22;9652;49.014;12.052;2022-10-16T14:30:16;24.30;64.90
19039;DHT22;9652;49.014;12.052;2022-10-16T14:32:55;24.30;64.20
19039;DHT22;9652;49.014;12.052;2022-10-16T14:35:26;24.30;64.40
19039;DHT22;9652;49.014;12.052;2022-10-16T14:37:56;24.30;65.40
19039;DHT22;9652;49.014;12.052;2022-10-16T14:40:26;24.20;65.70
19039;DHT22;9652;49.014;12.052;2022-10-16T14:42:55;24.30;66.10
19039;DHT22;9652;49.014;12.052;2022-10-16T14:45:26;24.20;66.30
19039;DHT22;9652;49.014;12.052;2022-10-16T14:47:57;24.20;66.60
19039;DHT22;9652;49.014;12.052;2022-10-16T14:50:26;24.10;66.60
19039;DHT22;9652;49.014;12.052;2022-10-16T14:52:54;24.10;66.80
19039;DHT22;9652;49.014;12.052;2022-10-16T14:55:22;24.00;66.90
19039;DHT22;9652;49.014;12.052;2022-10-16T14:57:49;24.00;67.10
19039;DHT22;9652;49.014;12.052;2022-10-16T15:00:19;23.90;67.20
19039;DHT22;9652;49.014;12.052;2022-10-16T15:02:49;23.90;67.30
19039;DHT22;9652;49.014;12.052;2022-10-16T15:05:19;23.90;67.40
19039;DHT22;9652;49.014;12.052;2022-10-16T15:07:49;23.80;67.50
19039;DHT22;9652;49.014;12.052;2022-10-16T15:10:20;23.70;67.70
19039;DHT22;9652;49.014;12.052;2022-10-16T15:12:48;23.70;67.90
19039;DHT22;9652;49.014;12.052;2022-10-16T15:15:25;23.70;68.10
19039;DHT22;9652;49.014;12.052;2022-10-16T15:17:59;23.60;68.20
19039;DHT22;9652;49.014;12.052;2022-10-16T15:20:30;23.60;68.30
19039;DHT22;9652;49.014;12.052;2022-10-16T15:23:00;23.50;68.30
19039;DHT22;9652;49.014;12.052;2022-10-16T15:25:32;23.50;68.50
19039;DHT22;9652;49.014;12.052;2022-10-16T15:28:02;23.50;68.60
19039;DHT22;9652;49.014;12.052;2022-10-16T15:30:30;23.40;68.60
19039;DHT22;9652;49.014;12.052;2022-10-16T15:32:58;23.40;68.70
19039;DHT22;9652;49.014;12.052;2022-10-16T15:35:25;23.30;68.60
19039;DHT22;9652;49.014;12.052;2022-10-16T15:37:54;23.20;68.60
19039;DHT22;9652;49.014;12.052;2022-10-16T15:40:21;23.20;68.80
19039;DHT22;9652;49.014;12.052;2022-10-16T15:42:49;23.10;68.80
19039;DHT22;9652;49.014;12.052;2022-10-16T15:45:16;23.10;68.90
19039;DHT22;9652;49.014;12.052;2022-10-16T15:47:44;23.00;69.00
19039;DHT22;9652;49.014;12.052;2022-10-16T15:50:13;22.90;69.10
19039;DHT22;9652;49.014;12.052;2022-10-16T15:52:41;22.80;69.30
19039;DHT22;9652;49.014;12.052;2022-10-16T15:55:13;22.80;69.30
19039;DHT22;9652;49.014;12.052;2022-10-16T15:57:41;22.70;69.50
19039;DHT22;9652;49.014;12.052;2022-10-16T16:00:11;22.60;69.60
19039;DHT22;9652;49.014;12.052;2022-10-16T16:02:40;22.50;69.60
19039;DHT22;9652;49.014;12.052;2022-10-16T16:05:09;22.50;69.70
19039;DHT22;9652;49.014;12.052;2022-10-16T16:07:38;22.40;69.80
19039;DHT22;9652;49.014;12.052;2022-10-16T16:10:09;22.30;70.00
19039;DHT22;9652;49.014;12.052;2022-10-16T16:12:38;22.20;70.10